Time,TemperatureF,DewpointF,PressureIn,WindDirection,WindDirectionDegrees,WindSpeedMPH,WindSpeedGustMPH,Humidity,HourlyPrecipIn,Conditions,Clouds,dailyrainin,SoftwareType,DateUTC
2013-02-26 00:00:00,28.0,25.7,30.40,SW,225,0.0,0.0,91,0.00,,,-99.99,Weather View 32 v60,2013-02-26 05:00:00,
2013-02-26 00:05:00,27.0,24.7,30.40,SW,225,0.0,0.0,91,0.00,,,-99.99,Weather View 32 v60,2013-02-26 05:05:00,
2013-02-26 00:10:00,26.0,23.7,30.41,SW,225,0.0,0.0,91,0.00,,,-99.99,Weather View 32 v60,2013-02-26 05:10:00,
2013-02-26 00:15:00,26.0,25.3,30.41,WSW,247,0.0,0.0,97,0.00,,,-99.99,Weather View 32 v60,2013-02-26 05:15:00,
2013-02-26 00:20:00,27.0,25.2,30.41,WSW,247,0.0,0.0,93,0.00,,,-99.99,Weather View 32 v60,2013-02-26 05:20:00,
2013-02-26 00:25:00,27.0,25.2,30.41,WSW,247,0.0,0.0,93,0.00,,,-99.99,Weather View 32 v60,2013-02-26 05:25:00,
2013-02-26 00:30:00,27.0,24.7,30.41,WSW,247,0.0,0.0,91,0.00,,,-99.99,Weather View 32 v60,2013-02-26 05:30:00,
2013-02-26 00:35:00,26.0,24.3,30.41,WSW,247,0.0,0.0,93,0.00,,,-99.99,Weather View 32 v60,2013-02-26 05:35:00,
2013-02-26 00:40:00,26.0,24.5,30.40,WSW,247,0.0,0.0,94,0.00,,,-99.99,Weather View 32 v60,2013-02-26 05:40:00,
2013-02-26 00:45:00,26.0,24.5,30.40,WSW,247,0.0,0.0,94,0.00,,,-99.99,Weather View 32 v60,2013-02-26 05:45:00,
2013-02-26 00:50:00,26.0,25.5,30.41,WSW,247,0.0,0.0,98,0.00,,,-99.99,Weather View 32 v60,2013-02-26 05:50:00,
2013-02-26 00:55:00,26.0,25.0,30.41,WSW,247,0.0,0.0,96,0.00,,,-99.99,Weather View 32 v60,2013-02-26 05:55:00,
2013-02-26 01:00:00,27.0,25.2,30.40,WSW,247,0.0,0.0,93,0.00,,,-99.99,Weather View 32 v60,2013-02-26 06:00:00,
2013-02-26 01:05:00,26.0,24.3,30.40,WSW,247,0.0,0.0,93,0.00,,,-99.99,Weather View 32 v60,2013-02-26 06:05:00,
2013-02-26 01:10:00,27.0,25.2,30.41,WSW,247,0.0,0.0,93,0.00,,,-99.99,Weather View 32 v60,2013-02-26 06:10:00,
2013-02-26 01:15:00,27.0,25.2,30.41,WSW,247,0.0,0.0,93,0.00,,,-99.99,Weather View 32 v60,2013-02-26 06:15:00,
2013-02-26 01:20:00,27.0,25.0,30.40,WSW,247,0.0,0.0,92,0.00,,,-99.99,Weather View 32 v60,2013-02-26 06:20:00,
2013-02-26 01:25:00,27.0,25.2,30.40,WSW,247,0.0,0.0,93,0.00,,,-99.99,Weather View 32 v60,2013-02-26 06:25:00,
2013-02-26 01:30:00,27.0,25.0,30.40,WSW,247,0.0,0.0,92,0.00,,,-99.99,Weather View 32 v60,2013-02-26 06:30:00,
2013-02-26 01:35:00,27.0,25.8,30.40,WSW,247,0.0,0.0,95,0.00,,,-99.99,Weather View 32 v60,2013-02-26 06:35:00,
2013-02-26 01:40:00,27.0,25.0,30.40,WSW,247,0.0,0.0,92,0.00,,,-99.99,Weather View 32 v60,2013-02-26 06:40:00,
2013-02-26 01:45:00,27.0,25.2,30.40,WSW,247,0.0,0.0,93,0.00,,,-99.99,Weather View 32 v60,2013-02-26 06:45:00,
2013-02-26 01:50:00,27.0,25.5,30.40,WSW,247,0.0,0.0,94,0.00,,,-99.99,Weather View 32 v60,2013-02-26 06:50:00,
2013-02-26 01:55:00,26.0,24.5,30.40,WSW,247,0.0,0.0,94,0.00,,,-99.99,Weather View 32 v60,2013-02-26 06:55:00,
2013-02-26 02:00:00,26.0,25.0,30.39,WSW,247,0.0,0.0,96,0.00,,,-99.99,Weather View 32 v60,2013-02-26 07:00:00,
2013-02-26 02:05:00,26.0,25.0,30.39,WSW,247,0.0,0.0,96,0.00,,,-99.99,Weather View 32 v60,2013-02-26 07:05:00,
2013-02-26 02:10:00,26.0,25.0,30.40,WSW,247,0.0,0.0,96,0.00,,,-99.99,Weather View 32 v60,2013-02-26 07:10:00,
2013-02-26 02:15:00,26.0,24.8,30.40,WSW,247,0.0,0.0,95,0.00,,,-99.99,Weather View 32 v60,2013-02-26 07:15:00,
2013-02-26 02:20:00,26.0,24.3,30.39,WSW,247,0.0,0.0,93,0.00,,,-99.99,Weather View 32 v60,2013-02-26 07:20:00,
2013-02-26 02:25:00,26.0,24.8,30.39,WSW,247,0.0,0.0,95,0.00,,,-99.99,Weather View 32 v60,2013-02-26 07:25:00,
2013-02-26 02:30:00,26.0,25.0,30.39,WSW,247,0.0,0.0,96,0.00,,,-99.99,Weather View 32 v60,2013-02-26 07:30:00,
2013-02-26 02:35:00,27.0,25.8,30.39,WSW,247,0.0,0.0,95,0.00,,,-99.99,Weather View 32 v60,2013-02-26 07:35:00,
2013-02-26 02:40:00,26.0,24.5,30.40,WSW,247,0.0,0.0,94,0.00,,,-99.99,Weather View 32 v60,2013-02-26 07:40:00,
2013-02-26 02:45:00,27.0,25.8,30.40,WSW,247,0.0,0.0,95,0.00,,,-99.99,Weather View 32 v60,2013-02-26 07:45:00,
2013-02-26 02:50:00,27.0,25.5,30.39,WSW,247,0.0,0.0,94,0.00,,,-99.99,Weather View 32 v60,2013-02-26 07:50:00,
2013-02-26 02:55:00,26.0,24.8,30.39,WSW,247,0.0,0.0,95,0.00,,,-99.99,Weather View 32 v60,2013-02-26 07:55:00,
2013-02-26 03:00:00,25.0,23.5,30.39,WSW,247,0.0,0.0,94,0.00,,,-99.99,Weather View 32 v60,2013-02-26 08:00:00,
2013-02-26 03:05:00,25.0,23.5,30.39,WSW,247,0.0,0.0,94,0.00,,,-99.99,Weather View 32 v60,2013-02-26 08:05:00,
2013-02-26 03:10:00,25.0,24.0,30.39,WSW,247,0.0,0.0,96,0.00,,,-99.99,Weather View 32 v60,2013-02-26 08:10:00,
2013-02-26 03:15:00,25.0,24.0,30.39,WSW,247,0.0,0.0,96,0.00,,,-99.99,Weather View 32 v60,2013-02-26 08:15:00,
2013-02-26 03:20:00,25.0,24.5,30.39,WSW,247,0.0,0.0,98,0.00,,,-99.99,Weather View 32 v60,2013-02-26 08:20:00,
2013-02-26 03:25:00,25.0,24.5,30.39,WSW,247,0.0,0.0,98,0.00,,,-99.99,Weather View 32 v60,2013-02-26 08:25:00,
2013-02-26 03:30:00,24.0,23.5,30.39,WSW,247,0.0,0.0,98,0.00,,,-99.99,Weather View 32 v60,2013-02-26 08:30:00,
2013-02-26 03:35:00,24.0,23.5,30.39,WSW,247,0.0,0.0,98,0.00,,,-99.99,Weather View 32 v60,2013-02-26 08:35:00,
2013-02-26 03:40:00,24.0,23.8,30.39,WSW,247,0.0,0.0,99,0.00,,,-99.99,Weather View 32 v60,2013-02-26 08:40:00,
2013-02-26 03:50:00,24.0,23.8,30.39,WSW,247,0.0,0.0,99,0.00,,,-99.99,Weather View 32 v60,2013-02-26 08:50:00,
2013-02-26 04:00:00,25.0,25.0,30.39,WSW,247,0.0,0.0,100,0.00,,,-99.99,Weather View 32 v60,2013-02-26 09:00:00,
2013-02-26 04:10:00,24.0,24.0,30.38,WSW,247,0.0,0.0,100,0.00,,,-99.99,Weather View 32 v60,2013-02-26 09:10:00,
2013-02-26 04:15:00,24.0,24.0,30.38,WSW,247,0.0,0.0,100,0.00,,,-99.99,Weather View 32 v60,2013-02-26 09:15:00,
2013-02-26 04:30:00,23.0,23.0,30.38,WSW,247,0.0,0.0,100,0.00,,,-99.99,Weather View 32 v60,2013-02-26 09:30:00,
2013-02-26 04:40:00,23.0,23.0,30.38,WSW,247,0.0,0.0,100,0.00,,,-99.99,Weather View 32 v60,2013-02-26 09:40:00,
2013-02-26 04:45:00,24.0,23.8,30.39,WSW,247,0.0,0.0,99,0.00,,,-99.99,Weather View 32 v60,2013-02-26 09:45:00,
2013-02-26 04:50:00,23.0,23.0,30.38,WSW,247,0.0,0.0,100,0.00,,,-99.99,Weather View 32 v60,2013-02-26 09:50:00,
2013-02-26 04:55:00,25.0,25.0,30.39,WSW,247,0.0,0.0,100,0.00,,,-99.99,Weather View 32 v60,2013-02-26 09:55:00,
2013-02-26 05:05:00,24.0,24.0,30.39,WSW,247,0.0,0.0,100,0.00,,,-99.99,Weather View 32 v60,2013-02-26 10:05:00,
2013-02-26 05:10:00,23.0,23.0,30.39,WSW,247,0.0,0.0,100,0.00,,,-99.99,Weather View 32 v60,2013-02-26 10:10:00,
2013-02-26 05:15:00,23.0,23.0,30.39,WSW,247,0.0,0.0,100,0.00,,,-99.99,Weather View 32 v60,2013-02-26 10:15:00,
2013-02-26 05:20:00,24.0,24.0,30.38,WSW,247,0.0,0.0,100,0.00,,,-99.99,Weather View 32 v60,2013-02-26 10:20:00,
2013-02-26 05:25:00,23.0,23.0,30.38,WSW,247,0.0,0.0,100,0.00,,,-99.99,Weather View 32 v60,2013-02-26 10:25:00,
2013-02-26 05:35:00,23.0,23.0,30.38,WSW,247,0.0,0.0,100,0.00,,,-99.99,Weather View 32 v60,2013-02-26 10:35:00,
2013-02-26 05:40:00,24.0,24.0,30.39,NE,45,0.0,0.0,100,0.00,,,-99.99,Weather View 32 v60,2013-02-26 10:40:00,
2013-02-26 05:55:00,25.0,25.0,30.39,NE,45,0.0,0.0,100,0.00,,,-99.99,Weather View 32 v60,2013-02-26 10:55:00,
2013-02-26 06:00:00,23.0,23.0,30.39,WSW,247,0.0,0.0,100,0.00,,,-99.99,Weather View 32 v60,2013-02-26 11:00:00,
2013-02-26 06:05:00,25.0,25.0,30.40,NE,45,0.0,0.0,100,0.00,,,-99.99,Weather View 32 v60,2013-02-26 11:05:00,
2013-02-26 06:30:00,23.0,23.0,30.37,NE,45,0.0,0.0,100,0.00,,,-99.99,Weather View 32 v60,2013-02-26 11:30:00,
2013-02-26 06:35:00,23.0,23.0,30.37,NE,45,0.0,0.0,100,0.00,,,-99.99,Weather View 32 v60,2013-02-26 11:35:00,
2013-02-26 06:44:00,24.0,24.0,30.39,NE,45,0.0,0.0,100,0.00,,,-99.99,Weather View 32 v60,2013-02-26 11:44:00,
2013-02-26 06:50:00,25.0,25.0,30.39,NE,45,0.0,0.0,100,0.00,,,-99.99,Weather View 32 v60,2013-02-26 11:50:00,
2013-02-26 07:00:00,25.0,25.0,30.40,NE,45,0.0,0.0,100,0.00,,,-99.99,Weather View 32 v60,2013-02-26 12:00:00,
2013-02-26 07:10:00,26.0,26.0,30.40,NE,45,0.0,0.0,100,0.00,,,-99.99,Weather View 32 v60,2013-02-26 12:10:00,
2013-02-26 07:15:00,26.0,26.0,30.40,NE,45,0.0,0.0,100,0.00,,,-99.99,Weather View 32 v60,2013-02-26 12:15:00,
2013-02-26 07:20:00,26.0,26.0,30.40,NE,45,0.0,0.0,100,0.00,,,-99.99,Weather View 32 v60,2013-02-26 12:20:00,
2013-02-26 07:30:00,26.0,26.0,30.41,NE,45,0.0,0.0,100,0.00,,,-99.99,Weather View 32 v60,2013-02-26 12:30:00,
2013-02-26 07:35:00,26.0,26.0,30.41,NE,45,0.0,0.0,100,0.00,,,-99.99,Weather View 32 v60,2013-02-26 12:35:00,
2013-02-26 07:40:00,27.0,27.0,30.41,NE,45,0.0,0.0,100,0.00,,,-99.99,Weather View 32 v60,2013-02-26 12:40:00,
2013-02-26 07:45:00,27.0,27.0,30.41,NE,45,0.0,0.0,100,0.00,,,-99.99,Weather View 32 v60,2013-02-26 12:45:00,
2013-02-26 07:55:00,28.0,28.0,30.41,NE,45,0.0,0.0,100,0.00,,,-99.99,Weather View 32 v60,2013-02-26 12:55:00,
2013-02-26 08:05:00,29.0,29.0,30.41,NE,45,0.0,0.0,100,0.00,,,-99.99,Weather View 32 v60,2013-02-26 13:05:00,
2013-02-26 08:15:00,30.0,29.3,30.41,NE,45,0.0,0.0,97,0.00,,,-99.99,Weather View 32 v60,2013-02-26 13:15:00,
2013-02-26 08:20:00,31.0,30.0,30.40,NE,45,0.0,0.0,96,0.00,,,-99.99,Weather View 32 v60,2013-02-26 13:20:00,
2013-02-26 08:30:00,31.0,29.5,30.41,NE,45,0.0,1.0,94,0.00,,,-99.99,Weather View 32 v60,2013-02-26 13:30:00,
2013-02-26 08:40:00,32.0,29.7,30.40,NNE,22,0.0,1.0,91,0.00,,,-99.99,Weather View 32 v60,2013-02-26 13:40:00,
2013-02-26 08:45:00,32.0,29.4,30.40,NNE,22,0.0,3.0,90,0.00,,,-99.99,Weather View 32 v60,2013-02-26 13:45:00,
2013-02-26 08:55:00,33.0,29.6,30.40,NE,45,3.0,4.0,87,0.00,,,-99.99,Weather View 32 v60,2013-02-26 13:55:00,
2013-02-26 09:00:00,33.0,29.3,30.40,NE,45,3.0,5.0,86,0.00,,,-99.99,Weather View 32 v60,2013-02-26 14:00:00,
2013-02-26 09:10:00,34.0,30.3,30.39,NNE,22,2.0,6.0,86,0.00,,,-99.99,Weather View 32 v60,2013-02-26 14:10:00,
2013-02-26 09:20:00,34.0,30.3,30.39,NNE,22,0.0,6.0,86,0.00,,,-99.99,Weather View 32 v60,2013-02-26 14:20:00,
2013-02-26 09:25:00,35.0,31.2,30.39,NNE,22,3.0,6.0,86,0.00,,,-99.99,Weather View 32 v60,2013-02-26 14:25:00,
2013-02-26 09:35:00,36.0,31.6,30.38,NE,45,1.0,6.0,84,0.00,,,-99.99,Weather View 32 v60,2013-02-26 14:35:00,
2013-02-26 09:40:00,36.0,31.6,30.39,NNE,22,2.0,7.0,84,0.00,,,-99.99,Weather View 32 v60,2013-02-26 14:40:00,
2013-02-26 09:46:00,36.0,31.6,30.39,NE,45,0.0,7.0,84,0.00,,,-99.99,Weather View 32 v60,2013-02-26 14:46:00,
2013-02-26 09:55:00,37.0,32.0,30.38,North,360,1.0,7.0,82,0.00,,,-99.99,Weather View 32 v60,2013-02-26 14:55:00,
2013-02-26 10:00:00,38.0,32.4,30.38,ENE,67,0.0,7.0,80,0.00,,,-99.99,Weather View 32 v60,2013-02-26 15:00:00,
2013-02-26 10:05:00,38.0,32.4,30.38,East,90,0.0,7.0,80,0.00,,,-99.99,Weather View 32 v60,2013-02-26 15:05:00,
2013-02-26 10:10:00,38.0,32.1,30.38,ENE,67,0.0,7.0,79,0.00,,,-99.99,Weather View 32 v60,2013-02-26 15:10:00,
2013-02-26 10:20:00,38.0,31.7,30.38,ENE,67,1.0,7.0,78,0.00,,,-99.99,Weather View 32 v60,2013-02-26 15:20:00,
2013-02-26 10:25:00,38.0,31.7,30.38,East,90,3.0,7.0,78,0.00,,,-99.99,Weather View 32 v60,2013-02-26 15:25:00,
2013-02-26 10:35:00,38.0,31.7,30.37,North,360,7.0,8.0,78,0.00,,,-99.99,Weather View 32 v60,2013-02-26 15:35:00,
2013-02-26 10:40:00,38.0,31.7,30.37,ENE,67,1.0,8.0,78,0.00,,,-99.99,Weather View 32 v60,2013-02-26 15:40:00,
2013-02-26 10:45:00,39.0,32.1,30.37,NE,45,3.0,8.0,76,0.00,,,-99.99,Weather View 32 v60,2013-02-26 15:45:00,
2013-02-26 10:55:00,39.0,32.1,30.37,NE,45,0.0,8.0,76,0.00,,,-99.99,Weather View 32 v60,2013-02-26 15:55:00,
2013-02-26 11:05:00,40.0,32.0,30.37,ENE,67,3.0,8.0,73,0.00,,,-99.99,Weather View 32 v60,2013-02-26 16:05:00,
2013-02-26 11:10:00,40.0,32.7,30.36,NE,45,2.0,8.0,75,0.00,,,-99.99,Weather View 32 v60,2013-02-26 16:10:00,
2013-02-26 11:15:00,40.0,31.7,30.36,NE,45,7.0,8.0,72,0.00,,,-99.99,Weather View 32 v60,2013-02-26 16:15:00,
2013-02-26 11:20:00,40.0,32.0,30.35,NE,45,4.0,8.0,73,0.00,,,-99.99,Weather View 32 v60,2013-02-26 16:20:00,
2013-02-26 11:30:00,41.0,33.0,30.35,NE,45,0.0,12.0,73,0.00,,,-99.99,Weather View 32 v60,2013-02-26 16:30:00,
2013-02-26 11:35:00,41.0,32.3,30.35,NNE,22,3.0,12.0,71,0.00,,,-99.99,Weather View 32 v60,2013-02-26 16:35:00,
2013-02-26 11:40:00,41.0,32.3,30.36,ENE,67,4.0,12.0,71,0.00,,,-99.99,Weather View 32 v60,2013-02-26 16:40:00,
2013-02-26 11:45:00,42.0,32.2,30.36,North,360,1.0,12.0,68,0.00,,,-99.99,Weather View 32 v60,2013-02-26 16:45:00,
2013-02-26 11:50:00,42.0,32.2,30.35,East,90,7.0,12.0,68,0.00,,,-99.99,Weather View 32 v60,2013-02-26 16:50:00,
2013-02-26 12:00:00,42.0,31.1,30.34,NE,45,0.0,12.0,65,0.00,,,-99.99,Weather View 32 v60,2013-02-26 17:00:00,
2013-02-26 12:15:00,44.0,33.0,30.34,NE,45,0.0,12.0,65,0.00,,,-99.99,Weather View 32 v60,2013-02-26 17:15:00,
2013-02-26 12:20:00,44.0,31.0,30.33,ENE,67,5.0,12.0,60,0.00,,,-99.99,Weather View 32 v60,2013-02-26 17:20:00,
2013-02-26 12:25:00,44.0,31.8,30.33,NNE,22,0.0,12.0,62,0.00,,,-99.99,Weather View 32 v60,2013-02-26 17:25:00,
2013-02-26 12:30:00,45.0,32.7,30.33,NW,315,5.0,10.0,62,0.00,,,-99.99,Weather View 32 v60,2013-02-26 17:30:00,
2013-02-26 12:45:00,44.0,31.0,30.32,NE,45,0.0,11.0,60,0.00,,,-99.99,Weather View 32 v60,2013-02-26 17:45:00,
2013-02-26 12:50:00,44.0,31.8,30.30,NNE,22,2.0,11.0,62,0.00,,,-99.99,Weather View 32 v60,2013-02-26 17:50:00,
2013-02-26 12:55:00,44.0,31.8,30.30,ENE,67,0.0,11.0,62,0.00,,,-99.99,Weather View 32 v60,2013-02-26 17:55:00,
2013-02-26 13:04:00,44.0,31.4,30.30,East,90,3.0,13.0,61,0.00,,,-99.99,Weather View 32 v60,2013-02-26 18:04:00,
2013-02-26 13:10:00,44.0,31.4,30.29,West,270,0.0,13.0,61,0.00,,,-99.99,Weather View 32 v60,2013-02-26 18:10:00,
2013-02-26 13:15:00,44.0,31.8,30.29,NNE,22,8.0,13.0,62,0.00,,,-99.99,Weather View 32 v60,2013-02-26 18:15:00,
2013-02-26 13:20:00,43.0,30.5,30.29,NNE,22,5.0,13.0,61,0.00,,,-99.99,Weather View 32 v60,2013-02-26 18:20:00,
2013-02-26 13:25:00,43.0,31.2,30.29,West,270,0.0,13.0,63,0.00,,,-99.99,Weather View 32 v60,2013-02-26 18:25:00,
2013-02-26 13:35:00,43.0,31.6,30.30,ENE,67,6.0,13.0,64,0.00,,,-99.99,Weather View 32 v60,2013-02-26 18:35:00,
2013-02-26 13:40:00,43.0,31.6,30.30,ENE,67,4.0,13.0,64,0.00,,,-99.99,Weather View 32 v60,2013-02-26 18:40:00,
2013-02-26 13:45:00,43.0,31.6,30.30,ENE,67,4.0,13.0,64,0.00,,,-99.99,Weather View 32 v60,2013-02-26 18:45:00,
2013-02-26 13:55:00,43.0,32.4,30.31,East,90,2.0,13.0,66,0.00,,,-99.99,Weather View 32 v60,2013-02-26 18:55:00,
2013-02-26 14:05:00,42.0,31.5,30.30,ENE,67,1.0,10.0,66,0.00,,,-99.99,Weather View 32 v60,2013-02-26 19:05:00,
2013-02-26 14:15:00,42.0,31.8,30.29,ENE,67,3.0,10.0,67,0.00,,,-99.99,Weather View 32 v60,2013-02-26 19:15:00,
2013-02-26 14:20:00,42.0,32.2,30.29,East,90,3.0,10.0,68,0.00,,,-99.99,Weather View 32 v60,2013-02-26 19:20:00,
2013-02-26 14:25:00,42.0,32.2,30.29,NNE,22,0.0,10.0,68,0.00,,,-99.99,Weather View 32 v60,2013-02-26 19:25:00,
2013-02-26 14:35:00,41.0,30.9,30.28,North,360,7.0,10.0,67,0.00,,,-99.99,Weather View 32 v60,2013-02-26 19:35:00,
2013-02-26 14:40:00,42.0,31.8,30.27,NE,45,2.0,10.0,67,0.00,,,-99.99,Weather View 32 v60,2013-02-26 19:40:00,
2013-02-26 14:45:00,42.0,32.2,30.27,NNE,22,6.0,11.0,68,0.00,,,-99.99,Weather View 32 v60,2013-02-26 19:45:00,
2013-02-26 14:50:00,42.0,31.5,30.27,ENE,67,0.0,11.0,66,0.00,,,-99.99,Weather View 32 v60,2013-02-26 19:50:00,
2013-02-26 15:00:00,41.0,31.2,30.27,NW,315,0.0,11.0,68,0.00,,,-99.99,Weather View 32 v60,2013-02-26 20:00:00,
2013-02-26 15:05:00,41.0,31.2,30.26,ENE,67,2.0,11.0,68,0.00,,,-99.99,Weather View 32 v60,2013-02-26 20:05:00,
2013-02-26 15:10:00,41.0,30.9,30.26,East,90,7.0,11.0,67,0.00,,,-99.99,Weather View 32 v60,2013-02-26 20:10:00,
2013-02-26 15:15:00,41.0,31.6,30.26,NNE,22,2.0,11.0,69,0.00,,,-99.99,Weather View 32 v60,2013-02-26 20:15:00,
2013-02-26 15:25:00,40.0,31.3,30.26,East,90,3.0,11.0,71,0.00,,,-99.99,Weather View 32 v60,2013-02-26 20:25:00,
2013-02-26 15:30:00,40.0,31.0,30.26,NNE,22,7.0,11.0,70,0.00,,,-99.99,Weather View 32 v60,2013-02-26 20:30:00,
2013-02-26 15:40:00,40.0,31.0,30.27,ENE,67,2.0,11.0,70,0.00,,,-99.99,Weather View 32 v60,2013-02-26 20:40:00,
2013-02-26 15:49:00,40.0,31.3,30.27,NE,45,0.0,11.0,71,0.00,,,-99.99,Weather View 32 v60,2013-02-26 20:49:00,
2013-02-26 15:55:00,40.0,31.3,30.26,NW,315,0.0,11.0,71,0.00,,,-99.99,Weather View 32 v60,2013-02-26 20:55:00,
2013-02-26 16:00:00,40.0,31.3,30.26,NE,45,3.0,11.0,71,0.00,,,-99.99,Weather View 32 v60,2013-02-26 21:00:00,
2013-02-26 16:10:00,39.0,30.4,30.25,NE,45,8.0,12.0,71,0.00,,,-99.99,Weather View 32 v60,2013-02-26 21:10:00,
2013-02-26 16:20:00,39.0,30.4,30.24,NE,45,3.0,14.0,71,0.00,,,-99.99,Weather View 32 v60,2013-02-26 21:20:00,
2013-02-26 16:25:00,39.0,30.4,30.24,NE,45,5.0,14.0,71,0.00,,,-99.99,Weather View 32 v60,2013-02-26 21:25:00,
2013-02-26 16:35:00,39.0,30.4,30.23,East,90,3.0,15.0,71,0.00,,,-99.99,Weather View 32 v60,2013-02-26 21:35:00,
2013-02-26 16:40:00,39.0,30.4,30.23,NNE,22,7.0,15.0,71,0.00,,,-99.99,Weather View 32 v60,2013-02-26 21:40:00,
2013-02-26 16:50:00,39.0,30.4,30.23,ENE,67,4.0,17.0,71,0.00,,,-99.99,Weather View 32 v60,2013-02-26 21:50:00,
2013-02-26 17:00:00,38.0,29.8,30.22,NE,45,0.0,17.0,72,0.00,,,-99.99,Weather View 32 v60,2013-02-26 22:00:00,
2013-02-26 17:05:00,38.0,29.8,30.22,NNE,22,1.0,17.0,72,0.00,,,-99.99,Weather View 32 v60,2013-02-26 22:05:00,
2013-02-26 17:15:00,38.0,30.1,30.20,ENE,67,2.0,17.0,73,0.00,,,-99.99,Weather View 32 v60,2013-02-26 22:15:00,
2013-02-26 17:20:00,38.0,30.1,30.21,North,360,3.0,17.0,73,0.00,,,-99.99,Weather View 32 v60,2013-02-26 22:20:00,
2013-02-26 17:25:00,38.0,30.1,30.21,NNE,22,4.0,17.0,73,0.00,,,-99.99,Weather View 32 v60,2013-02-26 22:25:00,
2013-02-26 17:30:00,38.0,30.4,30.21,NNE,22,6.0,17.0,74,0.00,,,-99.99,Weather View 32 v60,2013-02-26 22:30:00,
2013-02-26 17:40:00,38.0,30.8,30.21,NE,45,6.0,17.0,75,0.00,,,-99.99,Weather View 32 v60,2013-02-26 22:40:00,
2013-02-26 17:50:00,38.0,31.7,30.21,East,90,4.0,14.0,78,0.00,,,-99.99,Weather View 32 v60,2013-02-26 22:50:00,
2013-02-26 18:00:00,37.0,31.4,30.20,East,90,5.0,15.0,80,0.00,,,-99.99,Weather View 32 v60,2013-02-26 23:00:00,
2013-02-26 18:10:00,37.0,31.7,30.19,NNE,22,8.0,19.0,81,0.00,,,-99.99,Weather View 32 v60,2013-02-26 23:10:00,
2013-02-26 18:20:00,37.0,32.3,30.20,North,360,8.0,19.0,83,0.00,,,-99.99,Weather View 32 v60,2013-02-26 23:20:00,
2013-02-26 18:30:00,37.0,32.6,30.20,NE,45,3.0,19.0,84,0.00,,,-99.99,Weather View 32 v60,2013-02-26 23:30:00,
2013-02-26 18:35:00,37.0,33.2,30.20,North,360,11.0,19.0,86,0.00,,,-99.99,Weather View 32 v60,2013-02-26 23:35:00,
2013-02-26 18:40:00,37.0,33.2,30.18,NNE,22,1.0,19.0,86,0.00,,,-99.99,Weather View 32 v60,2013-02-26 23:40:00,
2013-02-26 18:45:00,37.0,33.2,30.18,NNE,22,13.0,19.0,86,0.00,,,-99.99,Weather View 32 v60,2013-02-26 23:45:00,
2013-02-26 18:51:00,37.0,33.2,30.17,ENE,67,7.0,19.0,86,0.00,,,-99.99,Weather View 32 v60,2013-02-26 23:51:00,
2013-02-26 19:00:00,37.0,33.2,30.17,NNW,337,9.0,19.0,86,0.00,,,-99.99,Weather View 32 v60,2013-02-27 00:00:00,
2013-02-26 19:05:00,37.0,32.9,30.17,NNE,22,5.0,22.0,85,0.00,,,-99.99,Weather View 32 v60,2013-02-27 00:05:00,
2013-02-26 19:10:00,37.0,33.2,30.17,ENE,67,7.0,22.0,86,0.00,,,-99.99,Weather View 32 v60,2013-02-27 00:10:00,
2013-02-26 19:20:00,37.0,33.2,30.16,NE,45,4.0,22.0,86,0.00,,,-99.99,Weather View 32 v60,2013-02-27 00:20:00,
2013-02-26 19:25:00,36.0,32.2,30.16,ENE,67,4.0,22.0,86,0.00,,,-99.99,Weather View 32 v60,2013-02-27 00:25:00,
2013-02-26 19:30:00,36.0,32.2,30.15,NNE,22,10.0,22.0,86,0.00,,,-99.99,Weather View 32 v60,2013-02-27 00:30:00,
2013-02-26 19:40:00,36.0,32.2,30.15,NNE,22,3.0,22.0,86,0.00,,,-99.99,Weather View 32 v60,2013-02-27 00:40:00,
2013-02-26 19:45:00,36.0,32.5,30.15,North,360,2.0,22.0,87,0.00,,,-99.99,Weather View 32 v60,2013-02-27 00:45:00,
2013-02-26 19:51:00,36.0,32.5,30.13,NE,45,10.0,22.0,87,0.00,,,-99.99,Weather View 32 v60,2013-02-27 00:51:00,
2013-02-26 20:00:00,35.0,32.4,30.13,ENE,67,15.0,25.0,90,0.00,,,-99.99,Weather View 32 v60,2013-02-27 01:00:00,
2013-02-26 20:10:00,35.0,32.4,30.10,East,90,7.0,25.0,90,0.00,,,-99.99,Weather View 32 v60,2013-02-27 01:10:00,
2013-02-26 20:25:00,35.0,33.2,30.09,East,90,8.0,25.0,93,0.00,,,-99.99,Weather View 32 v60,2013-02-27 01:25:00,
2013-02-26 20:30:00,35.0,33.2,30.08,NNE,22,7.0,25.0,93,0.00,,,-99.99,Weather View 32 v60,2013-02-27 01:30:00,
2013-02-26 20:40:00,35.0,34.0,30.08,NE,45,3.0,25.0,96,0.00,,,-99.99,Weather View 32 v60,2013-02-27 01:40:00,
2013-02-26 20:50:00,35.0,34.2,30.08,NNE,22,15.0,25.0,97,0.00,,,-99.99,Weather View 32 v60,2013-02-27 01:50:00,
2013-02-26 20:55:00,35.0,34.5,30.08,ESE,112,10.0,25.0,98,0.01,,,-99.99,Weather View 32 v60,2013-02-27 01:55:00,
2013-02-26 21:04:00,35.0,34.5,30.08,North,360,6.0,22.0,98,0.01,,,-99.99,Weather View 32 v60,2013-02-27 02:04:00,
2013-02-26 21:15:00,35.0,34.5,30.10,North,360,6.0,21.0,98,0.01,,,-99.99,Weather View 32 v60,2013-02-27 02:15:00,
2013-02-26 21:20:00,35.0,34.5,30.09,NNE,22,10.0,21.0,98,0.01,,,-99.99,Weather View 32 v60,2013-02-27 02:20:00,
2013-02-26 21:30:00,34.0,34.0,30.08,NE,45,12.0,21.0,100,0.01,,,-99.99,Weather View 32 v60,2013-02-27 02:30:00,
2013-02-26 21:35:00,34.0,34.0,30.08,ENE,67,5.0,21.0,100,0.00,,,-99.99,Weather View 32 v60,2013-02-27 02:35:00,
2013-02-26 21:40:00,34.0,34.0,30.07,NNW,337,8.0,21.0,100,0.00,,,-99.99,Weather View 32 v60,2013-02-27 02:40:00,
2013-02-26 21:50:00,34.0,34.0,30.06,NE,45,8.0,21.0,100,0.03,,,-99.99,Weather View 32 v60,2013-02-27 02:50:00,
2013-02-26 22:00:00,34.0,34.0,30.04,North,360,20.0,24.0,100,0.03,,,-99.99,Weather View 32 v60,2013-02-27 03:00:00,
2013-02-26 22:10:00,34.0,34.0,30.03,NNE,22,12.0,26.0,100,0.00,,,-99.99,Weather View 32 v60,2013-02-27 03:10:00,
2013-02-26 22:15:00,34.0,34.0,30.03,NE,45,10.0,28.0,100,0.05,,,-99.99,Weather View 32 v60,2013-02-27 03:15:00,
2013-02-26 22:20:00,34.0,34.0,30.02,NNE,22,8.0,28.0,100,0.05,,,-99.99,Weather View 32 v60,2013-02-27 03:20:00,
2013-02-26 22:25:00,34.0,34.0,30.02,ENE,67,5.0,28.0,100,0.05,,,-99.99,Weather View 32 v60,2013-02-27 03:25:00,
2013-02-26 22:35:00,34.0,34.0,30.01,North,360,13.0,28.0,100,0.03,,,-99.99,Weather View 32 v60,2013-02-27 03:35:00,
2013-02-26 22:40:00,34.0,34.0,30.00,NE,45,14.0,31.0,100,0.04,,,-99.99,Weather View 32 v60,2013-02-27 03:40:00,
2013-02-26 22:50:00,34.0,34.0,29.99,NE,45,10.0,31.0,100,0.04,,,-99.99,Weather View 32 v60,2013-02-27 03:50:00,
2013-02-26 22:55:00,33.0,33.0,29.99,North,360,5.0,31.0,100,0.04,,,-99.99,Weather View 32 v60,2013-02-27 03:55:00,
2013-02-26 23:00:00,33.0,33.0,29.99,North,360,7.0,31.0,100,0.05,,,-99.99,Weather View 32 v60,2013-02-27 04:00:00,
2013-02-26 23:05:00,33.0,33.0,29.99,NE,45,16.0,31.0,100,0.05,,,-99.99,Weather View 32 v60,2013-02-27 04:05:00,
2013-02-26 23:10:00,34.0,34.0,29.96,NNE,22,7.0,22.0,100,0.03,,,-99.99,Weather View 32 v60,2013-02-27 04:10:00,
2013-02-26 23:15:00,34.0,34.0,29.99,ENE,67,10.0,31.0,100,0.03,,,-99.99,Weather View 32 v60,2013-02-27 04:15:00,
2013-02-26 23:20:00,34.0,34.0,29.97,East,90,5.0,31.0,100,0.03,,,-99.99,Weather View 32 v60,2013-02-27 04:20:00,
2013-02-26 23:25:00,34.0,34.0,29.97,NE,45,7.0,31.0,100,0.03,,,-99.99,Weather View 32 v60,2013-02-27 04:25:00,
2013-02-26 23:30:00,34.0,34.0,29.97,ENE,67,2.0,31.0,100,0.03,,,-99.99,Weather View 32 v60,2013-02-27 04:30:00,
2013-02-26 23:35:00,35.0,35.0,29.94,NE,45,7.0,20.0,100,0.04,,,-99.99,Weather View 32 v60,2013-02-27 04:35:00,
2013-02-26 23:40:00,34.0,34.0,29.98,NNE,22,12.0,28.0,100,0.03,,,-99.99,Weather View 32 v60,2013-02-27 04:40:00,
2013-02-26 23:45:00,34.0,34.0,29.98,North,360,8.0,28.0,100,0.03,,,-99.99,Weather View 32 v60,2013-02-27 04:45:00,
2013-02-26 23:50:00,35.0,35.0,29.92,NNW,337,14.0,20.0,100,0.05,,,-99.99,Weather View 32 v60,2013-02-27 04:50:00,
2013-02-26 23:55:00,34.0,34.0,29.97,ENE,67,6.0,22.0,100,0.03,,,-99.99,Weather View 32 v60,2013-02-27 04:55:00,